Time;durP1;ratioP1;P1;durP2;ratioP2;P2;SDS_P1;SDS_P2;PMS_P1;PMS_P2;Temp;Humidity;BMP_temperature;BMP_pressure;BME280_temperature;BME280_humidity;BME280_pressure;Samples;Min_cycle;Max_cycle;Signal;HPM_P1;HPM_P2
2023/12/06 00:00:46;;;;;;;6.93;6.27;;;;;;;7.21;100.00;44251.72;6185526;23;20464;-58
2023/12/06 00:03:13;;;;;;;9.00;5.80;;;;;;;7.14;100.00;45192.31;6185048;23;20189;-58
2023/12/06 00:05:40;;;;;;;5.43;5.13;;;;;;;6.90;100.00;45825.22;6184379;23;20189;-58
2023/12/06 00:08:09;;;;;;;6.27;5.87;;;;;;;6.87;100.00;44472.44;6184266;23;20241;-57
2023/12/06 00:10:36;;;;;;;5.83;5.37;;;;;;;6.75;100.00;43811.50;6184585;23;20197;-57
2023/12/06 00:13:03;;;;;;;5.50;5.20;;;;;;;6.40;100.00;42287.84;6184301;23;20196;-57
2023/12/06 00:15:30;;;;;;;5.33;5.00;;;;;;;6.86;100.00;41570.84;6185259;23;20182;-57
2023/12/06 00:17:57;;;;;;;7.33;4.77;;;;;;;6.85;100.00;41944.50;6184862;23;20247;-57
2023/12/06 00:20:24;;;;;;;4.40;4.20;;;;;;;6.77;100.00;42152.16;6184523;23;20158;-59
2023/12/06 00:22:51;;;;;;;4.77;4.47;;;;;;;6.87;100.00;42257.59;6184274;23;20220;-57
2023/12/06 00:25:20;;;;;;;6.13;4.60;;;;;;;6.95;100.00;42713.16;6184548;23;20158;-58
2023/12/06 00:27:47;;;;;;;4.80;4.50;;;;;;;7.01;100.00;43056.72;6184058;23;20173;-58
2023/12/06 00:30:14;;;;;;;7.33;4.77;;;;;;;7.08;100.00;43298.41;6184470;23;20253;-58
2023/12/06 00:32:41;;;;;;;5.00;4.80;;;;;;;7.15;100.00;44395.47;6184267;23;20217;-58
2023/12/06 00:35:10;;;;;;;5.10;4.80;;;;;;;7.27;100.00;44568.44;6184294;23;20229;-59
2023/12/06 00:37:37;;;;;;;4.73;4.53;;;;;;;7.37;100.00;44795.25;6184235;23;20212;-57
2023/12/06 00:40:05;;;;;;;4.87;4.60;;;;;;;7.43;100.00;44940.97;6184145;23;20159;-57
2023/12/06 00:42:33;;;;;;;4.90;4.50;;;;;;;7.46;100.00;45854.84;6183958;23;20245;-59
2023/12/06 00:45:00;;;;;;;5.00;4.60;;;;;;;7.45;100.00;47466.06;6183967;23;20158;-57
2023/12/06 00:47:27;;;;;;;4.47;4.27;;;;;;;7.43;100.00;49077.16;6184048;23;20162;-57
2023/12/06 00:49:54;;;;;;;4.97;4.67;;;;;;;7.37;100.00;53591.41;6183970;23;20171;-57
2023/12/06 00:52:21;;;;;;;4.53;3.97;;;;;;;7.27;100.00;53582.03;6183975;23;20602;-59
2023/12/06 00:54:49;;;;;;;4.33;4.13;;;;;;;7.22;100.00;50672.09;6183951;23;20182;-58
2023/12/06 00:57:16;;;;;;;4.50;4.20;;;;;;;7.27;100.00;48740.88;6184001;23;20189;-59
2023/12/06 00:59:44;;;;;;;3.97;3.77;;;;;;;7.25;100.00;49707.28;6183743;23;20158;-58
2023/12/06 01:02:11;;;;;;;5.00;4.50;;;;;;;7.08;100.00;50982.31;6183749;23;20158;-58
2023/12/06 01:04:38;;;;;;;4.20;3.80;;;;;;;7.05;100.00;46143.91;6184228;23;20656;-57
2023/12/06 01:07:06;;;;;;;5.60;5.00;;;;;;;7.07;100.00;43891.56;6184122;23;20162;-58
2023/12/06 01:09:33;;;;;;;13.47;4.33;;;;;;;7.01;100.00;44852.41;6184157;23;20217;-58
2023/12/06 01:12:00;;;;;;;6.80;4.97;;;;;;;7.24;100.00;47126.22;6183835;23;20162;-57
2023/12/06 01:14:27;;;;;;;7.80;5.00;;;;;;;7.26;100.00;50998.34;6183610;23;20264;-57
2023/12/06 01:16:56;;;;;;;10.43;4.57;;;;;;;6.94;100.00;45169.28;6184247;23;20222;-58
2023/12/06 01:19:23;;;;;;;4.90;4.47;;;;;;;6.90;100.00;43234.78;6183829;23;20162;-58
2023/12/06 01:21:50;;;;;;;10.00;4.70;;;;;;;6.95;100.00;43560.44;6183779;23;20224;-57
2023/12/06 01:24:17;;;;;;;5.57;5.07;;;;;;;6.89;100.00;43555.81;6183698;23;20158;-57
2023/12/06 01:26:44;;;;;;;5.33;5.03;;;;;;;6.52;100.00;41598.22;6183742;23;20158;-57
2023/12/06 01:29:11;;;;;;;5.40;4.83;;;;;;;6.51;100.00;41597.84;6184342;23;20150;-58
2023/12/06 01:31:38;;;;;;;4.10;3.90;;;;;;;6.45;100.00;39103.47;6183874;23;20215;-58
2023/12/06 01:34:07;;;;;;;5.80;5.23;;;;;;;6.47;100.00;39687.06;6185722;23;20245;-57
2023/12/06 01:36:34;;;;;;;5.23;4.83;;;;;;;6.45;100.00;40217.72;6185875;23;20162;-58
2023/12/06 01:39:02;;;;;;;4.33;4.03;;;;;;;6.25;100.00;40725.75;6186019;23;20189;-57
2023/12/06 01:41:29;;;;;;;5.20;4.70;;;;;;;6.32;100.00;41403.13;6185944;23;20162;-58
2023/12/06 01:43:56;;;;;;;5.33;5.03;;;;;;;6.14;100.00;41985.13;6185740;23;20162;-59
2023/12/06 01:46:23;;;;;;;5.67;5.30;;;;;;;6.18;100.00;42356.75;6185650;23;20162;-58
2023/12/06 01:48:50;;;;;;;5.90;5.50;;;;;;;6.24;100.00;42441.56;6185614;23;20166;-58
2023/12/06 01:51:19;;;;;;;6.07;5.63;;;;;;;6.23;100.00;42538.75;6185976;23;20221;-58
2023/12/06 01:53:47;;;;;;;8.63;6.90;;;;;;;6.26;100.00;42179.81;6185379;23;20265;-57
2023/12/06 01:56:15;;;;;;;9.07;5.50;;;;;;;6.07;100.00;44907.16;6185852;23;20633;-57
2023/12/06 01:58:42;;;;;;;4.40;4.20;;;;;;;6.06;100.00;45848.44;6186486;23;20229;-58
2023/12/06 02:01:10;;;;;;;4.70;4.50;;;;;;;6.03;100.00;44667.88;6185991;23;20569;-58
2023/12/06 02:03:37;;;;;;;9.17;4.80;;;;;;;6.02;100.00;43351.34;6185557;23;20169;-57
2023/12/06 02:06:07;;;;;;;7.43;4.00;;;;;;;6.06;100.00;43452.31;6185463;23;20154;-57
2023/12/06 02:08:36;;;;;;;4.40;4.20;;;;;;;6.20;100.00;42684.63;6185940;23;20594;-58
2023/12/06 02:11:05;;;;;;;7.30;4.97;;;;;;;6.26;100.00;43199.31;6185489;23;20162;-59
2023/12/06 02:13:32;;;;;;;5.60;5.20;;;;;;;6.27;100.00;45151.63;6185330;23;20241;-57
2023/12/06 02:16:00;;;;;;;8.50;8.00;;;;;;;6.21;100.00;46199.81;6186402;23;20479;-58
2023/12/06 02:18:28;;;;;;;21.23;13.23;;;;;;;6.14;100.00;43067.13;6185772;23;20664;-57
2023/12/06 02:20:55;;;;;;;17.87;13.93;;;;;;;6.06;100.00;38798.09;6185407;23;20158;-58
2023/12/06 02:23:31;;;;;;;16.43;14.67;;;;;;;6.08;100.00;39240.78;6185294;23;20225;-59
2023/12/06 02:25:59;;;;;;;16.17;14.40;;;;;;;6.02;100.00;39946.66;6185316;23;20158;-58
2023/12/06 02:28:26;;;;;;;11.10;9.97;;;;;;;6.11;100.00;41688.91;6185525;23;20266;-58
2023/12/06 02:30:53;;;;;;;15.60;11.63;;;;;;;6.11;100.00;44325.06;6185583;23;20159;-57
2023/12/06 02:33:21;;;;;;;9.77;8.63;;;;;;;5.84;100.00;45620.53;6185907;23;20165;-57
2023/12/06 02:35:52;;;;;;;12.30;8.60;;;;;;;5.76;100.00;48241.81;6185075;23;20178;-58
2023/12/06 02:38:21;;;;;;;9.43;8.50;;;;;;;5.78;100.00;49525.47;6185578;23;20158;-57
2023/12/06 02:40:51;;;;;;;11.27;9.00;;;;;;;5.80;100.00;50077.44;6185217;23;20601;-57
2023/12/06 02:43:20;;;;;;;11.53;10.40;;;;;;;5.83;100.00;48574.50;6184883;23;20169;-57
2023/12/06 02:45:47;;;;;;;10.27;9.43;;;;;;;6.00;100.00;47456.88;6185566;23;20217;-58
2023/12/06 02:48:14;;;;;;;11.80;8.23;;;;;;;5.87;100.00;49229.06;6185507;23;20613;-57
2023/12/06 02:50:41;;;;;;;8.00;7.33;;;;;;;5.88;100.00;49025.84;6184983;23;20166;-58
2023/12/06 02:53:08;;;;;;;9.37;8.27;;;;;;;5.91;100.00;50869.84;6185182;23;20596;-57
2023/12/06 02:55:35;;;;;;;9.97;9.03;;;;;;;5.81;100.00;53024.75;6185326;23;20629;-57
2023/12/06 02:58:02;;;;;;;7.50;6.90;;;;;;;5.81;100.00;49331.97;6185012;23;20163;-58
2023/12/06 03:00:31;;;;;;;13.43;7.67;;;;;;;5.84;100.00;44321.94;6185109;23;20158;-57
2023/12/06 03:02:58;;;;;;;7.53;6.93;;;;;;;5.91;100.00;45344.84;6185383;23;20597;-57
2023/12/06 03:05:25;;;;;;;10.10;7.70;;;;;;;5.87;100.00;46884.00;6185568;23;20162;-57
2023/12/06 03:07:52;;;;;;;7.20;6.20;;;;;;;5.82;100.00;47520.16;6184977;23;20163;-58
2023/12/06 03:10:19;;;;;;;10.97;5.90;;;;;;;5.85;100.00;47040.66;6185342;23;20601;-58
2023/12/06 03:12:46;;;;;;;6.47;6.07;;;;;;;5.82;100.00;47312.03;6184840;23;20162;-57
2023/12/06 03:15:13;;;;;;;6.87;6.53;;;;;;;5.86;100.00;48393.56;6184665;23;20244;-57
2023/12/06 03:17:41;;;;;;;5.77;5.33;;;;;;;5.83;100.00;48222.59;6185680;23;20493;-57
2023/12/06 03:20:10;;;;;;;6.37;5.97;;;;;;;5.99;100.00;48185.44;6185849;23;20478;-57
2023/12/06 03:22:37;;;;;;;6.43;5.83;;;;;;;6.11;100.00;49457.69;6184936;23;20217;-57
2023/12/06 03:25:07;;;;;;;5.40;5.10;;;;;;;6.10;100.00;51386.66;6184853;23;20158;-58
2023/12/06 03:27:34;;;;;;;6.40;5.43;;;;;;;6.01;100.00;51544.66;6184733;23;20163;-58
2023/12/06 03:30:01;;;;;;;5.43;5.23;;;;;;;6.07;100.00;49016.59;6184665;23;20220;-58
2023/12/06 03:32:28;;;;;;;5.20;4.80;;;;;;;6.01;100.00;48023.28;6185087;23;20162;-57
2023/12/06 03:34:56;;;;;;;7.70;5.67;;;;;;;6.04;100.00;46108.13;6184695;23;20240;-57
2023/12/06 03:37:23;;;;;;;20.67;6.97;;;;;;;6.09;100.00;44763.03;6184888;23;20163;-58
2023/12/06 03:39:50;;;;;;;5.93;5.27;;;;;;;5.94;100.00;44490.47;6184910;23;20169;-59
2023/12/06 03:42:17;;;;;;;6.77;6.10;;;;;;;6.15;100.00;43085.47;6185141;23;20266;-57
2023/12/06 03:44:44;;;;;;;6.70;6.20;;;;;;;6.20;100.00;43681.53;6185164;23;20594;-58
2023/12/06 03:47:11;;;;;;;5.87;5.57;;;;;;;6.12;100.00;44607.53;6184917;23;20273;-58
2023/12/06 03:49:38;;;;;;;5.90;5.40;;;;;;;6.12;100.00;44466.50;6184496;23;20162;-58
2023/12/06 03:52:09;;;;;;;7.67;7.07;;;;;;;6.09;100.00;44592.63;6184757;23;20206;-57
2023/12/06 03:54:36;;;;;;;8.87;6.73;;;;;;;6.01;100.00;46131.22;6184360;23;20209;-58
2023/12/06 03:57:03;;;;;;;11.57;7.07;;;;;;;6.00;100.00;47135.16;6184948;23;20162;-58
2023/12/06 03:59:30;;;;;;;5.47;5.00;;;;;;;5.98;100.00;43336.50;6185609;23;20216;-59
2023/12/06 04:01:57;;;;;;;5.03;4.70;;;;;;;6.09;100.00;38406.53;6184840;23;20593;-57
2023/12/06 04:04:24;;;;;;;5.80;4.60;;;;;;;6.09;100.00;36609.41;6184151;23;20167;-58
2023/12/06 04:06:51;;;;;;;5.37;5.00;;;;;;;6.19;100.00;33477.16;6184292;23;20162;-57
2023/12/06 04:09:20;;;;;;;4.63;4.23;;;;;;;6.19;100.00;32553.38;6184353;23;20165;-58
2023/12/06 04:11:47;;;;;;;4.30;4.00;;;;;;;6.54;100.00;30512.97;6184175;23;20173;-58
2023/12/06 04:14:14;;;;;;;4.70;4.40;;;;;;;6.54;100.00;34530.22;6184320;23;20158;-58
2023/12/06 04:16:41;;;;;;;9.13;5.03;;;;;;;6.57;100.00;35409.69;6184243;23;20308;-58
2023/12/06 04:19:08;;;;;;;4.30;4.07;;;;;;;6.64;100.00;37134.13;6184359;23;20161;-58
2023/12/06 04:21:35;;;;;;;5.53;4.40;;;;;;;6.81;100.00;39650.72;6184451;23;20162;-58
2023/12/06 04:24:02;;;;;;;5.23;4.90;;;;;;;6.80;100.00;41824.84;6184895;23;20257;-58
2023/12/06 04:26:31;;;;;;;4.77;4.40;;;;;;;6.92;100.00;42770.84;6184890;23;20162;-58
2023/12/06 04:28:58;;;;;;;7.93;5.00;;;;;;;6.99;100.00;42442.16;6184570;23;20186;-57
2023/12/06 04:31:25;;;;;;;7.73;6.93;;;;;;;6.89;100.00;48582.97;6184781;23;20652;-58
2023/12/06 04:33:52;;;;;;;8.97;7.10;;;;;;;6.70;100.00;51523.72;6184532;23;20482;-57
2023/12/06 04:36:19;;;;;;;8.20;7.80;;;;;;;6.49;100.00;48544.34;6184050;23;20233;-57
2023/12/06 04:38:46;;;;;;;7.33;6.60;;;;;;;6.53;100.00;43920.19;6184066;23;20162;-58
2023/12/06 04:41:14;;;;;;;5.00;4.80;;;;;;;6.62;100.00;38761.09;6184818;23;20266;-57
2023/12/06 04:43:42;;;;;;;5.10;4.80;;;;;;;6.67;100.00;34465.91;6184535;23;20169;-58
2023/12/06 04:46:09;;;;;;;6.13;5.77;;;;;;;6.72;100.00;33659.41;6184100;23;20154;-58
2023/12/06 04:48:37;;;;;;;6.73;5.37;;;;;;;6.91;100.00;34522.72;6184401;23;20162;-57
2023/12/06 04:51:04;;;;;;;5.20;4.80;;;;;;;6.89;100.00;34251.31;6183924;23;20261;-58
2023/12/06 04:53:31;;;;;;;5.03;4.63;;;;;;;6.98;100.00;33674.50;6183676;23;20255;-57
2023/12/06 04:55:58;;;;;;;4.00;3.70;;;;;;;7.00;100.00;33555.66;6184260;23;20613;-57
2023/12/06 04:58:25;;;;;;;5.30;5.00;;;;;;;6.93;100.00;33736.97;6184291;23;20162;-58
2023/12/06 05:00:55;;;;;;;4.77;4.57;;;;;;;6.84;100.00;33320.47;6184133;23;20570;-58
2023/12/06 05:03:22;;;;;;;7.10;4.63;;;;;;;6.94;100.00;33684.94;6183852;23;20169;-57
2023/12/06 05:05:49;;;;;;;8.27;7.57;;;;;;;6.93;100.00;35499.56;6183892;23;20202;-57
2023/12/06 05:08:16;;;;;;;8.20;7.23;;;;;;;6.78;100.00;37587.84;6184185;23;20590;-57
2023/12/06 05:10:43;;;;;;;11.83;9.63;;;;;;;6.66;100.00;36691.47;6184532;23;20605;-57
2023/12/06 05:13:11;;;;;;;11.77;9.20;;;;;;;6.55;100.00;36727.22;6184813;23;20162;-58
2023/12/06 05:15:38;;;;;;;23.07;12.10;;;;;;;6.47;100.00;35388.31;6183682;23;20232;-57
2023/12/06 05:18:07;;;;;;;14.27;10.00;;;;;;;6.42;100.00;33716.72;6184164;23;20162;-59
2023/12/06 05:20:34;;;;;;;24.17;11.53;;;;;;;6.41;100.00;31920.56;6184086;23;20244;-58
2023/12/06 05:23:02;;;;;;;26.90;14.13;;;;;;;6.39;100.00;31571.44;6184274;23;20162;-57
2023/12/06 05:25:29;;;;;;;41.63;14.40;;;;;;;6.31;100.00;31446.47;6184025;23;20160;-57
2023/12/06 05:27:56;;;;;;;9.37;8.40;;;;;;;6.24;100.00;27023.72;6183619;23;20216;-58
2023/12/06 05:30:24;;;;;;;33.60;9.73;;;;;;;6.31;100.00;24068.84;6184149;23;20162;-57
2023/12/06 05:32:51;;;;;;;23.67;8.93;;;;;;;6.39;100.00;25014.16;6183655;23;20197;-58
2023/12/06 05:35:20;;;;;;;27.20;10.20;;;;;;;6.46;100.00;26879.34;6183937;23;20665;-57
2023/12/06 05:37:47;;;;;;;11.37;7.40;;;;;;;6.50;100.00;27421.16;6184353;23;20190;-58
2023/12/06 05:40:14;;;;;;;9.67;6.13;;;;;;;6.55;100.00;27353.63;6184057;23;20651;-57
2023/12/06 05:42:41;;;;;;;4.23;4.03;;;;;;;6.50;100.00;24911.78;6183642;23;20186;-57
2023/12/06 05:45:10;;;;;;;4.57;4.37;;;;;;;6.41;100.00;21988.41;6183606;23;20166;-57
2023/12/06 05:47:37;;;;;;;4.80;4.60;;;;;;;6.53;100.00;21254.22;6183898;23;20620;-59
2023/12/06 05:50:06;;;;;;;5.20;4.87;;;;;;;6.66;100.00;22842.84;6183616;23;20222;-58
2023/12/06 05:52:34;;;;;;;7.73;7.23;;;;;;;6.78;100.00;27513.00;6183554;23;20207;-58
2023/12/06 05:55:01;;;;;;;11.17;8.47;;;;;;;6.78;100.00;34244.56;6183957;23;20162;-57
2023/12/06 05:57:28;;;;;;;9.07;8.50;;;;;;;6.79;100.00;37006.03;6183395;23;20186;-58
2023/12/06 05:59:56;;;;;;;10.77;9.63;;;;;;;6.79;100.00;40467.97;6183536;23;20169;-57
2023/12/06 06:02:23;;;;;;;19.97;10.90;;;;;;;6.95;100.00;39383.63;6183549;23;20193;-59
2023/12/06 06:04:50;;;;;;;13.83;8.90;;;;;;;6.96;100.00;35288.28;6183474;23;20158;-57
2023/12/06 06:07:17;;;;;;;18.67;6.60;;;;;;;7.20;100.00;31290.94;6183684;23;20159;-58
2023/12/06 06:09:45;;;;;;;5.60;5.10;;;;;;;7.21;100.00;30629.91;6183884;23;20605;-58
2023/12/06 06:12:12;;;;;;;5.87;5.23;;;;;;;7.19;100.00;29842.34;6183411;23;20220;-59
2023/12/06 06:14:39;;;;;;;5.10;4.87;;;;;;;7.27;100.00;29789.03;6183516;23;20163;-57
2023/12/06 06:17:06;;;;;;;8.37;5.40;;;;;;;7.38;100.00;30123.00;6183701;23;20517;-59
2023/12/06 06:19:33;;;;;;;6.73;4.97;;;;;;;7.49;100.00;30294.44;6184976;23;20166;-58
2023/12/06 06:22:00;;;;;;;17.90;5.60;;;;;;;7.52;100.00;30474.09;6185662;23;20213;-59
2023/12/06 06:24:27;;;;;;;14.80;5.17;;;;;;;7.56;100.00;29789.41;6185879;23;20462;-57
2023/12/06 06:26:56;;;;;;;13.80;9.00;;;;;;;7.62;100.00;29887.63;6185437;23;20158;-59
2023/12/06 06:29:23;;;;;;;7.13;6.10;;;;;;;7.75;100.00;28914.66;6185413;23;20545;-59
2023/12/06 06:31:50;;;;;;;5.77;5.33;;;;;;;7.85;100.00;28904.63;6185336;23;20558;-59
2023/12/06 06:34:17;;;;;;;7.63;4.47;;;;;;;7.91;100.00;29035.66;6184980;23;20158;-56
2023/12/06 06:36:44;;;;;;;5.10;4.90;;;;;;;7.97;100.00;28534.81;6185573;23;20568;-55
2023/12/06 06:39:12;;;;;;;7.73;6.07;;;;;;;7.88;100.00;28600.06;6185463;23;20212;-56
2023/12/06 06:41:39;;;;;;;13.17;6.50;;;;;;;7.88;100.00;27213.97;6185098;23;20462;-57
2023/12/06 06:44:08;;;;;;;7.97;6.47;;;;;;;7.88;100.00;25588.00;6187318;23;20236;-58
2023/12/06 06:46:35;;;;;;;7.97;7.40;;;;;;;7.94;100.00;24694.16;6185357;23;20554;-58
2023/12/06 06:49:02;;;;;;;8.50;7.80;;;;;;;8.00;100.00;21805.38;6184800;23;20553;-59
2023/12/06 06:51:35;;;;;;;24.07;10.43;;;;;;;7.96;100.00;17732.75;6184910;23;20628;-58
2023/12/06 06:54:02;;;;;;;20.90;9.63;;;;;;;8.06;100.00;16029.25;6184892;23;20169;-58
2023/12/06 06:56:29;;;;;;;60.50;9.80;;;;;;;8.30;100.00;14437.50;6184478;23;20263;-57
2023/12/06 06:58:56;;;;;;;9.00;5.40;;;;;;;8.38;100.00;13160.88;6184607;23;20173;-58
2023/12/06 07:01:25;;;;;;;35.23;7.17;;;;;;;8.58;100.00;13486.00;6184878;23;20223;-58
2023/12/06 07:03:53;;;;;;;9.20;5.63;;;;;;;8.62;100.00;13807.06;6185171;23;20208;-58
2023/12/06 07:06:20;;;;;;;13.33;6.00;;;;;;;8.89;100.00;13174.47;6184762;23;20161;-58
2023/12/06 07:08:49;;;;;;;6.47;4.93;;;;;;;8.97;100.00;13496.47;6184789;23;20196;-58
2023/12/06 07:11:17;;;;;;;6.10;4.43;;;;;;;8.85;100.00;13493.22;6184821;23;20162;-60
2023/12/06 07:13:44;;;;;;;6.13;3.90;;;;;;;8.94;100.00;13815.66;6184767;23;20213;-60
2023/12/06 07:16:13;;;;;;;21.03;5.27;;;;;;;9.08;100.00;13179.56;6184708;23;20194;-61
2023/12/06 07:18:42;;;;;;;3.83;3.53;;;;;;;9.18;100.00;13502.19;6184257;23;20178;-60
2023/12/06 07:21:09;;;;;;;3.50;3.30;;;;;;;9.25;100.00;14784.97;6184884;23;20558;-61
2023/12/06 07:23:36;;;;;;;3.63;2.63;;;;;;;9.27;100.00;18631.03;6184618;23;20165;-60
2023/12/06 07:26:03;;;;;;;4.67;2.90;;;;;;;9.35;100.00;22805.59;6184940;23;20221;-60
2023/12/06 07:28:30;;;;;;;2.90;2.70;;;;;;;9.22;100.00;24084.66;6184575;23;20162;-60
2023/12/06 07:30:57;;;;;;;2.97;2.77;;;;;;;9.35;100.00;24090.47;6184190;23;20209;-60
2023/12/06 07:33:25;;;;;;;2.77;2.67;;;;;;;8.98;100.00;22148.53;6184836;23;20233;-60
2023/12/06 07:35:53;;;;;;;6.17;3.80;;;;;;;8.89;100.00;14774.41;6184860;23;20219;-60
2023/12/06 07:38:21;;;;;;;2.40;2.30;;;;;;;8.75;100.00;12211.28;6184843;23;20163;-62
2023/12/06 07:40:48;;;;;;;2.73;2.63;;;;;;;8.82;100.00;9975.06;6184645;23;20166;-62
2023/12/06 07:43:15;;;;;;;15.23;6.57;;;;;;;8.93;100.00;9338.19;6185348;23;20228;-63
2023/12/06 07:45:43;;;;;;;14.60;8.27;;;;;;;8.98;100.00;11257.44;6185109;23;20166;-63
2023/12/06 07:48:11;;;;;;;32.07;12.03;;;;;;;8.96;100.00;10937.31;6184793;23;20165;-62
2023/12/06 07:50:39;;;;;;;11.40;8.37;;;;;;;9.22;100.00;11582.91;6184450;23;20241;-64
2023/12/06 07:53:07;;;;;;;8.07;7.27;;;;;;;9.21;100.00;16385.44;6183607;23;20202;-61
2023/12/06 07:55:34;;;;;;;50.33;23.77;;;;;;;9.17;100.00;14782.59;6184798;23;20233;-61
2023/12/06 07:58:02;;;;;;;8.60;6.47;;;;;;;9.29;100.00;9985.16;6184879;23;20201;-63
2023/12/06 08:00:31;;;;;;;2.73;2.43;;;;;;;9.26;100.00;12223.88;6186453;23;20158;-61
2023/12/06 08:02:59;;;;;;;4.87;3.00;;;;;;;9.44;100.00;13509.28;6184727;23;20272;-64
2023/12/06 08:05:28;;;;;;;10.33;4.53;;;;;;;9.55;100.00;13832.59;6185643;23;20165;-63
2023/12/06 08:07:55;;;;;;;6.07;3.10;;;;;;;9.54;100.00;16396.00;6183183;23;20403;-63
2023/12/06 08:10:23;;;;;;;5.17;2.80;;;;;;;9.57;100.00;17679.59;6184126;23;20439;-62
2023/12/06 08:12:50;;;;;;;1.90;1.80;;;;;;;9.48;100.00;19601.16;6182887;23;20162;-63
2023/12/06 08:15:17;;;;;;;9.47;3.37;;;;;;;9.60;100.00;19284.53;6183716;23;20166;-62
2023/12/06 08:17:44;;;;;;;4.90;2.93;;;;;;;9.66;100.00;19286.75;6184001;23;20537;-62
2023/12/06 08:20:12;;;;;;;11.73;4.60;;;;;;;9.69;100.00;18645.84;6184017;23;20162;-62
2023/12/06 08:22:39;;;;;;;8.00;3.50;;;;;;;9.71;100.00;19609.34;6183694;23;20173;-62
2023/12/06 08:25:06;;;;;;;3.20;2.60;;;;;;;9.88;100.00;20579.03;6183533;23;20166;-63
2023/12/06 08:27:35;;;;;;;2.87;2.77;;;;;;;9.93;100.00;23794.41;6183733;23;20186;-61
2023/12/06 08:30:03;;;;;;;13.97;3.27;;;;;;;10.11;100.00;26697.94;6184203;23;20498;-62
2023/12/06 08:32:30;;;;;;;2.20;2.10;;;;;;;10.02;100.00;29591.22;6184156;23;20158;-61
2023/12/06 08:34:57;;;;;;;8.77;8.03;;;;;;;10.00;100.00;32812.66;6183689;23;20197;-64
2023/12/06 08:37:26;;;;;;;12.10;6.70;;;;;;;9.99;100.00;31200.44;6184187;23;20237;-65
2023/12/06 08:39:53;;;;;;;3.30;3.10;;;;;;;9.94;100.00;28299.19;6184293;23;20173;-65
2023/12/06 08:42:22;;;;;;;4.97;2.90;;;;;;;10.10;100.00;27341.50;6183837;23;20249;-63
2023/12/06 08:44:53;;;;;;;5.60;2.57;;;;;;;10.19;100.00;26701.88;6184190;23;20197;-63
2023/12/06 08:47:20;;;;;;;17.63;2.97;;;;;;;10.24;100.00;26060.50;6184410;23;20158;-64
2023/12/06 08:49:48;;;;;;;3.40;3.10;;;;;;;10.04;100.00;23156.41;6183963;23;20166;-63
2023/12/06 08:52:19;;;;;;;15.97;4.37;;;;;;;10.15;100.00;22839.19;6184141;23;20205;-64
2023/12/06 08:54:47;;;;;;;2.60;2.50;;;;;;;10.19;100.00;22840.91;6184961;23;20228;-63
2023/12/06 08:57:14;;;;;;;2.40;2.20;;;;;;;10.27;100.00;23809.41;6183848;23;20695;-64
2023/12/06 08:59:41;;;;;;;2.40;2.20;;;;;;;10.28;100.00;25418.44;6184048;23;20166;-63
2023/12/06 09:02:09;;;;;;;8.00;2.83;;;;;;;10.30;100.00;26385.28;6184437;23;20162;-62
2023/12/06 09:04:36;;;;;;;1.80;1.80;;;;;;;10.40;100.00;28322.66;6183367;23;20241;-63
2023/12/06 09:07:04;;;;;;;52.90;21.43;;;;;;;10.47;100.00;31872.28;6183360;23;20154;-61
2023/12/06 09:09:32;;;;;;;30.43;9.13;;;;;;;10.46;100.00;31872.00;6183534;23;20614;-64
2023/12/06 09:11:59;;;;;;;4.33;2.83;;;;;;;10.54;100.00;34135.53;6184287;23;20176;-62
2023/12/06 09:14:27;;;;;;;2.30;2.10;;;;;;;10.36;100.00;35738.53;6183343;23;20164;-63
2023/12/06 09:16:54;;;;;;;3.20;2.70;;;;;;;10.36;100.00;34446.97;6183793;23;20645;-63
2023/12/06 09:19:22;;;;;;;1.90;1.80;;;;;;;10.24;100.00;34762.25;6183733;23;20155;-62
2023/12/06 09:21:49;;;;;;;12.77;3.80;;;;;;;10.38;100.00;33157.41;6184685;23;20552;-62
2023/12/06 09:24:16;;;;;;;8.37;2.57;;;;;;;10.38;100.00;35416.94;6184849;23;20246;-63
2023/12/06 09:26:44;;;;;;;15.83;4.43;;;;;;;10.57;100.00;34782.47;6184135;23;20518;-63
2023/12/06 09:29:12;;;;;;;2.97;2.53;;;;;;;10.72;100.00;36083.94;6183536;23;20162;-63
2023/12/06 09:31:39;;;;;;;28.37;4.17;;;;;;;10.75;100.00;38348.41;6183450;23;20158;-63
2023/12/06 09:34:07;;;;;;;60.23;7.07;;;;;;;10.76;100.00;40289.63;6183545;23;20224;-62
2023/12/06 09:36:36;;;;;;;13.93;5.00;;;;;;;10.74;100.00;44820.78;6183781;23;20220;-63
2023/12/06 09:39:04;;;;;;;9.70;2.70;;;;;;;10.89;100.00;47749.72;6183657;23;20237;-63
2023/12/06 09:41:32;;;;;;;17.10;3.80;;;;;;;11.02;100.00;53279.47;6183455;23;20162;-64
2023/12/06 09:44:00;;;;;;;4.20;2.20;;;;;;;10.90;100.00;60748.50;6183881;23;20162;-64
2023/12/06 09:46:28;;;;;;;7.87;2.30;;;;;;;10.93;100.00;62054.19;6183679;23;20537;-63
2023/12/06 09:48:55;;;;;;;6.60;3.10;;;;;;;10.97;100.00;61406.56;6183657;23;20158;-64
2023/12/06 09:51:23;;;;;;;15.73;2.83;;;;;;;10.96;100.00;59777.63;6183609;23;20174;-63
2023/12/06 09:53:52;;;;;;;2.17;1.77;;;;;;;10.67;100.00;58121.31;6184560;23;20552;-63
2023/12/06 09:56:19;;;;;;;3.73;1.60;;;;;;;10.58;100.00;54213.31;6185576;23;20186;-61
2023/12/06 09:58:47;;;;;;;1.37;1.27;;;;;;;10.67;100.00;51299.28;6185574;23;20240;-63
2023/12/06 10:01:14;;;;;;;1.47;1.47;;;;;;;10.57;100.00;47399.25;6185202;23;20170;-63
2023/12/06 10:03:41;;;;;;;3.93;2.10;;;;;;;10.69;100.00;44168.69;6185446;23;20162;-63
2023/12/06 10:06:09;;;;;;;4.20;2.13;;;;;;;10.69;100.00;43521.44;6185554;23;20508;-64
2023/12/06 10:08:36;;;;;;;3.93;2.70;;;;;;;10.56;100.00;44158.59;6185847;23;20498;-63
2023/12/06 10:11:06;;;;;;;2.80;1.70;;;;;;;10.72;100.00;44494.91;6185482;23;20216;-62
2023/12/06 10:13:35;;;;;;;11.03;2.10;;;;;;;10.77;100.00;42879.94;6185005;23;20212;-62
2023/12/06 10:16:03;;;;;;;3.17;1.83;;;;;;;10.82;100.00;43207.16;6185361;23;20161;-63
2023/12/06 10:18:30;;;;;;;2.20;1.40;;;;;;;10.75;100.00;47414.22;6184486;23;20269;-63
2023/12/06 10:20:57;;;;;;;9.60;2.70;;;;;;;10.61;100.00;47078.47;6185242;23;20158;-63
2023/12/06 10:23:24;;;;;;;3.53;1.70;;;;;;;10.71;100.00;43522.56;6184827;23;20212;-61
2023/12/06 10:25:51;;;;;;;4.40;1.57;;;;;;;10.75;100.00;40936.00;6185044;23;20165;-63
2023/12/06 10:28:23;;;;;;;1.30;1.20;;;;;;;10.69;100.00;43197.25;6185780;23;20154;-61
2023/12/06 10:31:00;;;;;;;3.23;1.20;;;;;;;10.76;100.00;39319.22;6184622;23;20162;-62
2023/12/06 10:33:27;;;;;;;1.67;1.40;;;;;;;10.70;100.00;39638.44;6185263;23;20604;-62
2023/12/06 10:35:55;;;;;;;5.80;1.30;;;;;;;10.73;100.00;38023.75;6185334;23;20165;-61
2023/12/06 10:38:22;;;;;;;1.00;1.00;;;;;;;10.70;100.00;39961.88;6185390;23;20182;-62
2023/12/06 10:40:50;;;;;;;21.67;3.00;;;;;;;10.86;100.00;38679.28;6185013;23;20158;-62
2023/12/06 10:43:19;;;;;;;18.17;3.17;;;;;;;11.08;100.00;39665.13;6185074;23;20216;-62
2023/12/06 10:45:50;;;;;;;3.00;0.97;;;;;;;11.11;100.00;42257.03;6184954;23;20170;-62
2023/12/06 10:48:19;;;;;;;8.50;1.70;;;;;;;11.21;100.00;42912.78;6185374;23;20158;-61
2023/12/06 10:50:46;;;;;;;8.20;0.93;;;;;;;10.94;100.00;41921.31;6184935;23;20163;-62
2023/12/06 10:53:16;;;;;;;4.37;0.90;;;;;;;11.00;100.00;39659.50;6184744;23;20271;-62
2023/12/06 10:55:43;;;;;;;6.83;1.60;;;;;;;10.79;100.00;38674.81;6185244;23;20185;-62
2023/12/06 10:58:10;;;;;;;8.93;1.93;;;;;;;11.01;100.00;37395.84;6184953;23;20660;-62
2023/12/06 11:00:38;;;;;;;1.17;0.97;;;;;;;11.07;100.00;32551.97;6185210;23;20237;-62
2023/12/06 11:03:06;;;;;;;1.23;1.10;;;;;;;10.97;100.00;28351.81;6185089;23;20164;-63
2023/12/06 11:05:40;;;;;;;1.27;1.17;;;;;;;10.99;100.00;21909.22;6184577;23;20212;-62
2023/12/06 11:08:36;;;;;;;2.03;0.90;;;;;;;10.76;100.00;14507.72;6185055;23;20158;-62
2023/12/06 11:11:26;;;;;;;1.00;1.00;;;;;;;10.23;100.00;3285.31;6182822;23;20178;-62
2023/12/06 11:14:06;;;;;;;3.07;1.00;;;;;;;9.90;100.00;-868.97;6184514;23;20170;-63
2023/12/06 11:16:46;;;;;;;1.00;1.00;;;;;;;9.55;100.00;1362.88;6184870;23;20162;-63
2023/12/06 11:19:16;;;;;;;0.97;0.97;;;;;;;10.06;100.00;1686.03;6184856;23;20190;-62
2023/12/06 11:21:43;;;;;;;0.80;0.80;;;;;;;10.11;100.00;6161.75;6184562;23;20162;-64
2023/12/06 11:24:12;;;;;;;1.23;1.13;;;;;;;10.09;100.00;13123.66;6184534;23;20159;-64
2023/12/06 11:26:39;;;;;;;1.53;1.10;;;;;;;10.04;100.00;17645.16;6184706;23;20166;-64
2023/12/06 11:29:07;;;;;;;1.00;1.00;;;;;;;9.90;100.00;18987.06;6184584;23;20213;-62
2023/12/06 11:31:36;;;;;;;0.90;0.90;;;;;;;10.13;100.00;18395.66;6184753;23;20162;-63